Time;durP1;ratioP1;P1;durP2;ratioP2;P2;SDS_P1;SDS_P2;PMS_P1;PMS_P2;Temp;Humidity;BMP_temperature;BMP_pressure;BME280_temperature;BME280_humidity;BME280_pressure;Samples;Min_cycle;Max_cycle;Signal;HPM_P1;HPM_P2
2023/02/25 00:05:06;;;;;;;9.97;1.60;;;13.40;90.50;;;;;;10515785;28;20068;-24
2023/02/25 00:10:10;;;;;;;9.60;1.55;;;11.50;99.90;;;;;;10519274;28;20037;-27
2023/02/25 00:15:12;;;;;;;6.57;1.55;;;9.90;90.80;;;;;;10517091;28;20481;-24
2023/02/25 00:20:19;;;;;;;8.90;1.08;;;12.50;99.90;;;;;;10520812;28;20153;-24
2023/02/25 00:25:21;;;;;;;6.80;1.23;;;11.50;99.90;;;;;;10507875;28;20124;-24
2023/02/25 00:30:23;;;;;;;6.00;1.90;;;13.10;99.90;;;;;;10526650;28;20067;-24
2023/02/25 00:35:26;;;;;;;10.10;1.93;;;14.10;95.00;;;;;;10520116;28;20040;-23
2023/02/25 00:40:28;;;;;;;13.38;2.45;;;13.20;99.10;;;;;;10525799;28;20104;-24
2023/02/25 00:45:30;;;;;;;14.57;3.00;;;13.40;99.90;;;;;;10505152;28;20427;-24
2023/02/25 00:50:33;;;;;;;6.00;2.25;;;12.40;99.90;;;;;;10525515;28;20076;-24
2023/02/25 00:55:35;;;;;;;9.80;1.80;;;14.20;97.60;;;;;;10527077;28;20075;-24
2023/02/25 01:00:37;;;;;;;14.35;2.22;;;13.80;93.90;;;;;;10512175;28;20468;-27
2023/02/25 01:05:42;;;;;;;8.67;2.00;;;13.90;96.30;;;;;;10517599;28;20076;-24
2023/02/25 01:10:44;;;;;;;7.88;1.88;;;13.70;98.40;;;;;;10520314;28;20247;-25
2023/02/25 01:15:46;;;;;;;10.70;2.22;;;12.60;91.60;;;;;;10517826;28;20087;-25
2023/02/25 01:20:49;;;;;;;13.73;2.20;;;11.70;99.40;;;;;;10521164;28;20480;-24
2023/02/25 01:25:51;;;;;;;9.48;1.75;;;11.50;97.20;;;;;;10524739;28;20072;-24
2023/02/25 01:30:53;;;;;;;10.25;1.63;;;12.80;91.90;;;;;;10528747;28;20127;-23
2023/02/25 01:35:56;;;;;;;6.60;1.63;;;13.30;91.70;;;;;;10514856;28;20052;-24
2023/02/25 01:40:59;;;;;;;11.25;2.67;;;13.30;99.40;;;;;;10522392;28;20484;-26
2023/02/25 01:46:01;;;;;;;13.73;2.10;;;12.90;98.00;;;;;;10506543;28;20068;-25
2023/02/25 01:51:09;;;;;;;8.93;1.53;;;13.80;91.50;;;;;;10522641;28;20070;-24
2023/02/25 01:56:14;;;;;;;11.00;1.65;;;14.50;94.70;;;;;;10519789;28;20043;-24
2023/02/25 02:01:19;;;;;;;7.55;1.75;;;13.90;97.30;;;;;;10516572;28;20110;-24
2023/02/25 02:06:27;;;;;;;10.82;1.60;;;14.30;96.20;;;;;;10498495;28;20469;-26
2023/02/25 02:11:29;;;;;;;11.90;2.20;;;12.40;99.90;;;;;;10510748;28;20657;-24
2023/02/25 02:16:49;;;;;;;8.80;1.60;;;12.20;99.90;;;;;;10517102;28;20135;-24
2023/02/25 02:22:03;;;;;;;12.13;1.63;;;13.70;85.60;;;;;;10512369;28;20490;-24
2023/02/25 02:27:07;;;;;;;4.15;1.35;;;12.60;91.80;;;;;;10506180;28;20104;-24
2023/02/25 02:32:16;;;;;;;8.85;1.50;;;11.60;99.90;;;;;;10506532;28;20142;-24
2023/02/25 02:37:29;;;;;;;7.85;1.70;;;12.70;99.90;;;;;;10515416;28;20055;-24
2023/02/25 02:42:38;;;;;;;8.73;1.40;;;14.90;92.50;;;;;;10510632;28;20068;-24
2023/02/25 02:47:45;;;;;;;7.65;1.95;;;15.90;87.60;;;;;;10508838;28;20040;-25
2023/02/25 02:52:51;;;;;;;8.95;2.30;;;15.50;86.90;;;;;;10502825;28;20064;-26
2023/02/25 02:57:58;;;;;;;14.98;2.00;;;15.00;89.70;;;;;;10500860;28;20052;-24
2023/02/25 03:03:07;;;;;;;12.43;2.05;;;13.10;71.60;;;;;;10488215;28;20127;-24
2023/02/25 03:08:13;;;;;;;14.00;1.67;;;13.40;81.90;;;;;;10493912;28;20048;-25
2023/02/25 03:13:16;;;;;;;13.93;2.50;;;12.10;99.90;;;;;;10499073;28;20053;-27
2023/02/25 03:18:26;;;;;;;12.43;1.20;;;9.70;99.90;;;;;;10530281;28;20051;-25
2023/02/25 03:23:30;;;;;;;5.85;1.30;;;9.20;99.90;;;;;;10511385;28;20490;-25
2023/02/25 03:28:34;;;;;;;8.95;1.52;;;10.80;99.90;;;;;;10522104;28;20123;-23
2023/02/25 03:33:46;;;;;;;12.82;1.95;;;11.60;90.10;;;;;;10517989;28;20075;-24
2023/02/25 03:38:51;;;;;;;11.23;2.00;;;12.50;99.90;;;;;;10516034;28;20052;-24
2023/02/25 03:43:56;;;;;;;10.77;1.63;;;11.70;98.20;;;;;;10528175;28;20032;-23
2023/02/25 03:49:03;;;;;;;5.07;1.00;;;12.70;99.90;;;;;;10513512;28;20044;-26
2023/02/25 03:54:06;;;;;;;5.88;1.50;;;13.90;95.60;;;;;;10515893;28;20135;-24
2023/02/25 03:59:07;;;;;;;4.07;1.30;;;13.70;95.80;;;;;;10512949;28;20509;-26
2023/02/25 04:04:11;;;;;;;5.93;1.42;;;14.50;93.80;;;;;;10522407;28;20127;-26
2023/02/25 04:09:13;;;;;;;6.07;1.17;;;14.70;92.50;;;;;;10528183;28;20392;-25
2023/02/25 04:14:17;;;;;;;3.17;1.05;;;15.30;90.10;;;;;;10530737;28;20059;-24
2023/02/25 04:19:20;;;;;;;5.22;1.17;;;15.70;85.30;;;;;;10535246;28;20113;-24
2023/02/25 04:24:22;;;;;;;17.00;1.83;;;13.90;78.10;;;;;;10524930;28;20437;-23
2023/02/25 04:29:24;;;;;;;11.13;3.50;;;13.20;97.60;;;;;;10518463;28;20130;-24
2023/02/25 04:34:27;;;;;;;7.50;1.77;;;12.00;99.90;;;;;;10526891;28;20090;-24
2023/02/25 04:39:29;;;;;;;8.88;1.75;;;13.90;82.40;;;;;;10519642;28;20059;-25
2023/02/25 04:44:31;;;;;;;6.07;1.92;;;14.10;92.00;;;;;;10526598;28;20050;-24
2023/02/25 04:49:43;;;;;;;6.27;1.43;;;12.90;84.60;;;;;;10520243;28;20484;-25
2023/02/25 04:54:45;;;;;;;11.23;2.28;;;13.90;93.40;;;;;;10520443;28;20036;-25
2023/02/25 04:59:47;;;;;;;8.50;1.80;;;13.60;87.00;;;;;;10531191;28;20054;-24
2023/02/25 05:04:50;;;;;;;10.73;1.57;;;12.20;99.90;;;;;;10527205;28;20047;-25
2023/02/25 05:09:52;;;;;;;10.80;2.35;;;10.70;99.90;;;;;;10512974;28;20442;-24
2023/02/25 05:14:54;;;;;;;7.32;1.88;;;10.80;99.90;;;;;;10520461;28;20052;-24
2023/02/25 05:19:57;;;;;;;8.80;2.20;;;11.70;99.00;;;;;;10518183;28;20068;-25
2023/02/25 05:24:59;;;;;;;8.15;1.80;;;12.20;82.60;;;;;;10507383;28;20447;-24
2023/02/25 05:30:01;;;;;;;12.13;1.52;;;11.90;99.90;;;;;;10507606;28;20545;-24
2023/02/25 05:35:07;;;;;;;7.97;1.57;;;13.80;80.80;;;;;;10520168;28;20132;-24
2023/02/25 05:40:12;;;;;;;4.18;1.50;;;13.50;96.20;;;;;;10503263;28;20392;-24
2023/02/25 05:45:14;;;;;;;7.55;1.70;;;15.10;89.20;;;;;;10495200;28;20063;-24
2023/02/25 05:50:18;;;;;;;4.50;1.17;;;15.50;83.80;;;;;;10517702;28;20488;-23
2023/02/25 05:55:20;;;;;;;6.05;1.38;;;13.80;95.30;;;;;;10512871;28;20047;-24
2023/02/25 06:00:22;;;;;;;13.65;1.77;;;13.50;87.00;;;;;;10507254;28;20047;-24
2023/02/25 06:05:29;;;;;;;5.57;0.85;;;11.70;97.60;;;;;;10525048;28;20121;-24
2023/02/25 06:10:37;;;;;;;7.45;1.38;;;13.10;95.30;;;;;;10527030;28;20559;-24
2023/02/25 06:15:41;;;;;;;4.40;1.08;;;14.80;91.50;;;;;;10521830;28;20448;-24
2023/02/25 06:20:44;;;;;;;6.38;1.20;;;15.10;87.80;;;;;;10513621;28;20090;-26
2023/02/25 06:25:46;;;;;;;4.63;1.10;;;15.20;83.70;;;;;;10514579;28;20151;-26
2023/02/25 06:30:47;;;;;;;3.87;0.93;;;15.50;87.50;;;;;;10506894;28;20079;-25
2023/02/25 06:35:52;;;;;;;3.88;0.80;;;16.10;80.90;;;;;;10518165;28;20044;-25
2023/02/25 06:40:54;;;;;;;12.70;1.52;;;16.20;82.30;;;;;;10517096;28;20063;-24
2023/02/25 06:45:56;;;;;;;9.97;1.40;;;14.70;77.80;;;;;;10516423;28;20064;-25
2023/02/25 06:51:00;;;;;;;6.80;1.02;;;13.80;91.40;;;;;;10506909;28;20357;-25
2023/02/25 06:56:02;;;;;;;3.90;0.95;;;16.00;84.40;;;;;;10502945;28;20130;-24
2023/02/25 07:14:27;;;;;;;2.75;0.95;;;16.60;78.70;;;;;;10572257;27;20117;-26
2023/02/25 07:19:29;;;;;;;7.55;1.70;;;16.40;82.10;;;;;;10565906;28;20075;-25
2023/02/25 07:24:30;;;;;;;2.80;0.90;;;15.50;89.70;;;;;;10562456;28;20043;-24
2023/02/25 07:29:34;;;;;;;4.85;0.90;;;16.10;84.80;;;;;;10564577;28;20044;-26
2023/02/25 07:34:36;;;;;;;6.90;1.00;;;16.30;83.00;;;;;;10567563;28;20380;-25
2023/02/25 07:39:38;;;;;;;10.73;1.98;;;15.90;85.10;;;;;;10563212;28;20088;-25
2023/02/25 07:44:41;;;;;;;4.87;1.20;;;14.30;86.70;;;;;;10569976;28;20047;-25
2023/02/25 07:49:43;;;;;;;4.68;0.98;;;15.50;90.10;;;;;;10571334;28;20039;-25
2023/02/25 07:54:45;;;;;;;4.47;1.08;;;14.70;93.50;;;;;;10558797;28;20050;-24
2023/02/25 07:59:48;;;;;;;10.10;1.57;;;15.10;91.40;;;;;;10567586;28;20126;-26
2023/02/25 08:04:51;;;;;;;4.85;1.23;;;15.40;90.80;;;;;;10560516;28;20582;-25
2023/02/25 08:09:52;;;;;;;13.45;1.83;;;15.30;85.60;;;;;;10573934;28;20158;-24
2023/02/25 08:14:56;;;;;;;9.43;1.77;;;14.80;91.30;;;;;;10567722;28;20054;-25
2023/02/25 08:19:58;;;;;;;5.93;1.52;;;14.50;94.20;;;;;;10561648;28;20040;-24
2023/02/25 08:24:59;;;;;;;7.57;1.30;;;14.50;94.30;;;;;;10538256;28;20623;-24
2023/02/25 08:30:07;;;;;;;8.87;1.83;;;15.80;90.30;;;;;;10534668;28;20079;-24
2023/02/25 08:35:10;;;;;;;4.38;0.85;;;15.50;86.50;;;;;;10535676;28;20047;-24
2023/02/25 08:40:12;;;;;;;24.95;2.55;;;15.20;89.30;;;;;;10530092;28;20054;-23
2023/02/25 08:45:16;;;;;;;13.05;1.95;;;13.40;96.40;;;;;;10536859;28;20114;-24
2023/02/25 08:50:18;;;;;;;14.90;2.40;;;13.80;97.20;;;;;;10532139;28;20072;-25
2023/02/25 08:55:23;;;;;;;10.13;1.43;;;13.70;90.60;;;;;;10532750;28;20067;-24
2023/02/25 09:00:27;;;;;;;14.50;1.70;;;14.40;94.30;;;;;;10541864;28;20118;-24
2023/02/25 09:05:29;;;;;;;7.57;1.60;;;12.50;69.60;;;;;;10535147;28;20059;-26
2023/02/25 09:10:33;;;;;;;8.50;1.40;;;12.90;96.90;;;;;;10537086;28;20056;-25
2023/02/25 09:15:36;;;;;;;4.22;1.42;;;13.40;95.90;;;;;;10531100;28;20067;-25
2023/02/25 09:20:38;;;;;;;13.18;2.33;;;14.60;94.40;;;;;;10531976;28;20458;-25
2023/02/25 09:25:39;;;;;;;8.80;1.47;;;14.10;95.00;;;;;;10533635;28;20048;-26
2023/02/25 09:30:45;;;;;;;16.67;2.23;;;14.30;92.40;;;;;;10522460;28;20082;-23
2023/02/25 09:35:47;;;;;;;12.23;1.90;;;13.70;91.90;;;;;;10521768;28;20130;-26
2023/02/25 09:40:49;;;;;;;14.47;2.07;;;14.50;92.20;;;;;;10531808;28;20420;-30
2023/02/25 09:46:05;;;;;;;13.82;1.83;;;14.30;94.50;;;;;;10532352;28;20500;-24
2023/02/25 09:51:21;;;;;;;8.55;2.10;;;14.50;93.60;;;;;;10535145;28;20086;-25
2023/02/25 09:56:26;;;;;;;13.68;2.65;;;15.20;93.20;;;;;;10525755;28;20051;-25
2023/02/25 10:01:35;;;;;;;10.40;1.83;;;14.20;67.90;;;;;;10532046;28;20040;-24
2023/02/25 10:06:41;;;;;;;9.23;1.90;;;15.20;88.70;;;;;;10523746;28;20040;-25
2023/02/25 10:11:59;;;;;;;7.40;1.48;;;15.00;72.40;;;;;;10518218;28;20084;-26
2023/02/25 10:17:10;;;;;;;9.20;1.48;;;14.60;95.10;;;;;;10525098;28;20040;-23
2023/02/25 10:22:36;;;;;;;10.45;1.98;;;13.50;71.20;;;;;;10517145;28;20071;-25
2023/02/25 10:27:44;;;;;;;4.20;0.68;;;14.90;91.40;;;;;;10531061;28;20122;-25
2023/02/25 10:32:48;;;;;;;9.02;1.73;;;14.00;74.10;;;;;;10526145;28;20143;-24
2023/02/25 10:37:50;;;;;;;8.13;1.40;;;15.10;91.40;;;;;;10524513;28;20032;-24
2023/02/25 10:42:53;;;;;;;6.43;1.87;;;14.60;95.10;;;;;;10526585;28;20120;-23
2023/02/25 10:48:05;;;;;;;4.68;1.40;;;15.50;92.70;;;;;;10518417;28;20043;-24
2023/02/25 10:53:14;;;;;;;9.48;1.73;;;13.90;90.30;;;;;;10526321;28;20423;-25
2023/02/25 10:58:28;;;;;;;6.43;1.77;;;14.50;94.50;;;;;;10528810;28;20142;-24
2023/02/25 11:03:39;;;;;;;10.57;2.15;;;16.00;89.90;;;;;;10521444;28;20036;-25
2023/02/25 11:08:40;;;;;;;9.57;2.05;;;15.70;92.10;;;;;;10528879;28;20101;-24
2023/02/25 11:13:43;;;;;;;9.53;2.57;;;16.60;88.80;;;;;;10525602;28;20095;-23
2023/02/25 11:18:50;;;;;;;;;;;15.20;92.20;;;;;;10522518;28;20109;-23
2023/02/25 11:23:53;;;;;;;5.28;1.52;;;15.60;80.30;;;;;;10529997;28;20022;-26
2023/02/25 11:28:58;;;;;;;10.32;3.42;;;12.90;89.80;;;;;;10532450;28;20653;-25
2023/02/25 11:34:05;;;;;;;8.38;2.90;;;13.80;72.90;;;;;;10531938;28;20032;-25
2023/02/25 11:39:15;;;;;;;8.02;3.40;;;13.70;90.50;;;;;;10530484;28;20116;-23
2023/02/25 11:44:26;;;;;;;13.25;3.35;;;14.50;93.50;;;;;;10524078;28;20055;-25
2023/02/25 11:49:47;;;;;;;11.27;2.80;;;15.20;92.80;;;;;;10526068;28;20050;-24
2023/02/25 11:55:01;;;;;;;10.93;3.78;;;13.70;85.30;;;;;;10526802;28;20076;-24
2023/02/25 12:00:18;;;;;;;11.43;4.78;;;14.30;96.60;;;;;;10534351;28;20044;-24
2023/02/25 12:05:43;;;;;;;14.38;5.85;;;15.00;94.90;;;;;;10539939;28;20105;-23
2023/02/25 12:11:26;;;;;;;10.48;4.68;;;15.80;80.70;;;;;;10533845;28;20062;-23
2023/02/25 12:17:09;;;;;;;11.50;4.70;;;15.80;92.00;;;;;;10533586;28;20578;-23
2023/02/25 12:22:53;;;;;;;10.50;3.88;;;16.10;85.40;;;;;;10517726;28;20032;-25
2023/02/25 12:28:22;;;;;;;9.82;3.28;;;16.50;87.60;;;;;;10526364;28;20040;-24
2023/02/25 12:33:41;;;;;;;8.93;3.60;;;16.80;85.80;;;;;;10519818;28;20075;-25
2023/02/25 12:39:19;;;;;;;5.55;1.80;;;17.40;81.70;;;;;;10528259;28;20044;-24
2023/02/25 12:44:48;;;;;;;10.85;1.83;;;17.70;79.80;;;;;;10535837;28;20134;-24
2023/02/25 12:50:19;;;;;;;6.88;1.38;;;17.80;79.80;;;;;;10528523;28;20135;-26
2023/02/25 12:55:41;;;;;;;3.38;1.20;;;17.70;79.90;;;;;;10530628;28;20820;-24
2023/02/25 13:01:16;;;;;;;8.07;1.42;;;17.60;81.50;;;;;;10530965;28;20131;-25
2023/02/25 13:06:42;;;;;;;5.05;1.17;;;16.70;84.50;;;;;;10525358;28;20075;-25
2023/02/25 13:12:01;;;;;;;5.80;1.13;;;17.70;82.60;;;;;;10524634;28;20143;-24
2023/02/25 13:17:24;;;;;;;5.88;0.98;;;17.40;84.30;;;;;;10516996;28;20080;-25
2023/02/25 13:22:43;;;;;;;7.60;1.00;;;16.60;88.00;;;;;;10528550;28;20040;-25
2023/02/25 13:28:21;;;;;;;9.50;1.25;;;17.30;86.10;;;;;;10530319;28;20127;-25
2023/02/25 13:33:37;;;;;;;10.23;1.13;;;17.00;74.20;;;;;;10530872;28;20079;-24
2023/02/25 13:39:02;;;;;;;8.73;1.08;;;16.30;87.50;;;;;;10529932;28;20099;-24
2023/02/25 13:44:32;;;;;;;7.78;0.93;;;17.70;83.50;;;;;;10524412;28;20163;-27
2023/02/25 13:50:25;;;;;;;6.28;1.20;;;18.10;77.10;;;;;;10537217;28;20047;-25
2023/02/25 13:55:42;;;;;;;9.13;1.15;;;18.20;79.00;;;;;;10396149;28;20132;-24
2023/02/25 14:01:07;;;;;;;3.58;1.10;;;17.40;75.40;;;;;;10493875;28;20063;-23
2023/02/25 14:06:23;;;;;;;3.75;1.27;;;17.10;80.80;;;;;;10529150;28;21036;-24
2023/02/25 14:11:51;;;;;;;4.05;1.00;;;17.60;82.60;;;;;;10528470;28;20052;-25
2023/02/25 14:17:35;;;;;;;7.80;0.93;;;18.20;80.30;;;;;;10525153;28;20203;-24
2023/02/25 14:22:42;;;;;;;11.77;0.82;;;18.40;79.40;;;;;;10503269;28;20465;-24
2023/02/25 14:27:51;;;;;;;4.38;1.35;;;17.70;79.30;;;;;;10526460;28;20500;-24
2023/02/25 14:33:27;;;;;;;6.20;1.30;;;17.90;83.20;;;;;;10531999;28;20048;-23
2023/02/25 14:38:40;;;;;;;8.55;2.38;;;17.70;81.60;;;;;;10529121;28;20064;-23
2023/02/25 14:43:45;;;;;;;3.45;0.65;;;17.50;69.20;;;;;;10540757;28;20067;-24
2023/02/25 14:48:57;;;;;;;3.00;0.80;;;17.90;70.80;;;;;;10529224;28;20052;-23
2023/02/25 14:54:30;;;;;;;;;;;18.70;73.60;;;;;;10532072;28;20192;-26
2023/02/25 15:00:00;;;;;;;4.87;0.80;;;18.20;78.50;;;;;;10523693;28;20023;-24
2023/02/25 15:05:21;;;;;;;2.20;0.65;;;18.70;74.90;;;;;;10529525;28;20570;-27
2023/02/25 15:10:48;;;;;;;9.40;0.90;;;18.70;73.70;;;;;;10525919;28;20048;-25
2023/02/25 15:16:35;;;;;;;4.18;0.88;;;18.30;73.60;;;;;;10521498;28;20186;-24
2023/02/25 15:21:42;;;;;;;2.10;0.73;;;18.80;72.10;;;;;;10420096;28;20036;-25
2023/02/25 15:26:47;;;;;;;2.22;0.73;;;18.40;77.50;;;;;;10522461;28;20588;-25
2023/02/25 15:32:20;;;;;;;5.07;1.00;;;18.70;75.60;;;;;;10518814;28;20040;-23
2023/02/25 15:37:33;;;;;;;3.30;0.70;;;18.30;73.80;;;;;;10530276;28;20093;-24
2023/02/25 15:42:49;;;;;;;2.72;1.10;;;18.10;74.20;;;;;;10535915;28;20040;-24
2023/02/25 15:48:34;;;;;;;4.65;1.23;;;19.00;72.90;;;;;;10527850;28;20093;-22
2023/02/25 15:53:46;;;;;;;3.53;1.63;;;18.90;74.60;;;;;;10543811;28;20051;-26
2023/02/25 15:58:53;;;;;;;5.60;1.08;;;19.20;74.70;;;;;;10533585;28;20432;-24
2023/02/25 16:03:55;;;;;;;8.18;1.77;;;19.30;71.00;;;;;;10539974;28;20512;-24
2023/02/25 16:09:07;;;;;;;7.78;1.58;;;19.10;57.90;;;;;;10535087;28;20101;-25
2023/02/25 16:14:17;;;;;;;8.83;2.30;;;17.90;83.50;;;;;;10535700;28;20102;-25
2023/02/25 16:19:21;;;;;;;4.40;2.78;;;19.00;76.20;;;;;;10532355;28;20384;-24
2023/02/25 16:24:25;;;;;;;4.75;3.20;;;20.00;68.10;;;;;;10530744;28;20089;-25
2023/02/25 16:29:48;;;;;;;8.13;1.95;;;19.60;69.30;;;;;;10538798;28;20038;-24
2023/02/25 16:34:56;;;;;;;6.72;2.60;;;19.50;70.90;;;;;;10519665;28;20109;-25
2023/02/25 16:40:01;;;;;;;4.53;2.97;;;19.90;67.00;;;;;;10537362;28;20044;-26
2023/02/25 16:45:05;;;;;;;4.15;2.40;;;19.90;67.00;;;;;;10524083;28;20097;-24
2023/02/25 16:50:14;;;;;;;5.00;2.28;;;19.90;66.80;;;;;;10532022;28;20823;-24
2023/02/25 16:55:21;;;;;;;4.50;2.10;;;20.00;66.20;;;;;;10528402;28;20122;-25
2023/02/25 17:00:36;;;;;;;5.00;1.95;;;19.70;67.70;;;;;;10534228;28;20392;-24
2023/02/25 17:05:39;;;;;;;6.15;2.03;;;19.70;66.80;;;;;;10528942;28;20091;-23
2023/02/25 17:10:47;;;;;;;6.03;2.45;;;20.00;70.20;;;;;;10529135;28;20135;-25
2023/02/25 17:15:50;;;;;;;2.92;1.50;;;20.00;64.30;;;;;;10530399;28;20108;-26
2023/02/25 17:21:01;;;;;;;5.43;1.85;;;19.90;65.90;;;;;;10524732;28;20048;-28
2023/02/25 17:26:05;;;;;;;5.05;2.15;;;20.20;63.40;;;;;;10530059;28;20543;-25
2023/02/25 17:31:11;;;;;;;6.00;1.90;;;20.00;63.70;;;;;;10542179;28;20071;-25
2023/02/25 17:36:15;;;;;;;4.00;1.52;;;20.20;62.00;;;;;;10531958;28;20102;-25
2023/02/25 17:41:19;;;;;;;8.65;2.20;;;20.20;61.20;;;;;;10519460;28;20123;-25
2023/02/25 17:46:34;;;;;;;6.15;2.08;;;19.90;62.60;;;;;;10539016;28;20211;-26
2023/02/25 17:51:38;;;;;;;6.97;2.58;;;19.70;64.70;;;;;;10529426;28;20134;-27
2023/02/25 17:56:42;;;;;;;6.13;2.95;;;19.60;66.50;;;;;;10528101;28;20122;-26
2023/02/25 18:01:53;;;;;;;6.70;3.00;;;19.40;67.90;;;;;;10525677;28;20040;-26
2023/02/25 18:06:55;;;;;;;10.95;4.65;;;19.40;68.20;;;;;;10529966;28;20127;-25
2023/02/25 18:12:00;;;;;;;7.05;4.07;;;19.20;69.30;;;;;;10526357;28;20090;-27
2023/02/25 18:17:11;;;;;;;8.05;4.35;;;19.10;70.20;;;;;;10529723;28;20951;-25
2023/02/25 18:22:27;;;;;;;9.05;4.80;;;19.00;70.20;;;;;;10523567;28;20472;-23
2023/02/25 18:27:31;;;;;;;11.32;4.15;;;19.00;70.00;;;;;;10525601;28;20044;-23
2023/02/25 18:32:33;;;;;;;8.85;5.18;;;19.00;69.70;;;;;;10530875;28;21088;-25
2023/02/25 18:37:35;;;;;;;11.68;4.80;;;18.90;70.30;;;;;;10524375;28;20105;-27
2023/02/25 18:42:39;;;;;;;9.10;4.20;;;18.70;72.00;;;;;;10524944;28;20044;-24
2023/02/25 18:47:40;;;;;;;11.05;4.95;;;18.60;71.70;;;;;;10522546;28;20754;-24
2023/02/25 18:52:43;;;;;;;12.85;5.00;;;18.60;72.30;;;;;;10526011;28;20166;-24
2023/02/25 18:57:46;;;;;;;11.57;5.28;;;18.70;71.20;;;;;;10521290;28;20044;-23
2023/02/25 19:02:51;;;;;;;11.20;5.47;;;18.50;71.90;;;;;;10523848;28;20396;-24
2023/02/25 19:07:53;;;;;;;9.80;4.88;;;18.50;71.70;;;;;;10529763;28;20044;-25
2023/02/25 19:13:02;;;;;;;9.90;4.20;;;18.60;71.00;;;;;;10526934;28;20112;-25
2023/02/25 19:18:04;;;;;;;10.55;4.43;;;18.60;70.80;;;;;;10532452;28;20127;-26
2023/02/25 19:23:06;;;;;;;11.25;5.38;;;18.60;70.80;;;;;;10528940;28;20127;-25
2023/02/25 19:28:10;;;;;;;11.10;5.40;;;18.50;70.50;;;;;;10524416;28;20093;-24
2023/02/25 19:33:13;;;;;;;10.68;5.45;;;18.50;70.30;;;;;;10523511;28;20502;-26
2023/02/25 19:38:16;;;;;;;;;;;18.50;69.80;;;;;;10520248;28;20132;-25
2023/02/25 19:43:19;;;;;;;11.95;5.07;;;18.50;70.80;;;;;;10520663;28;20023;-24
2023/02/25 19:48:21;;;;;;;10.80;5.13;;;18.50;70.40;;;;;;10525244;28;20121;-23
2023/02/25 19:53:23;;;;;;;10.05;4.68;;;18.50;70.20;;;;;;10523354;28;20072;-24
2023/02/25 19:58:26;;;;;;;9.23;4.75;;;18.40;69.90;;;;;;10516612;28;20127;-25
2023/02/25 20:03:28;;;;;;;8.48;4.30;;;18.50;69.40;;;;;;10525418;28;20385;-24
2023/02/25 20:08:30;;;;;;;14.00;6.50;;;18.50;69.40;;;;;;10526732;28;20473;-24
2023/02/25 20:13:33;;;;;;;15.63;7.50;;;18.30;70.30;;;;;;10526467;28;20395;-25
2023/02/25 20:18:35;;;;;;;9.20;2.97;;;18.50;69.20;;;;;;10530075;28;20834;-24
2023/02/25 20:23:37;;;;;;;7.97;2.13;;;18.70;67.20;;;;;;10532298;28;20387;-25
2023/02/25 20:28:41;;;;;;;7.18;2.03;;;18.80;66.80;;;;;;10532715;28;20067;-24
2023/02/25 20:33:44;;;;;;;9.50;2.10;;;18.80;66.40;;;;;;10529163;28;20079;-25
2023/02/25 20:38:59;;;;;;;5.82;1.60;;;18.80;66.50;;;;;;10534309;28;20075;-24
2023/02/25 20:44:02;;;;;;;4.43;1.48;;;18.80;66.10;;;;;;10531674;28;20058;-24
2023/02/25 20:49:05;;;;;;;7.95;2.00;;;18.80;66.40;;;;;;10531042;28;20140;-25
2023/02/25 20:54:09;;;;;;;9.38;1.77;;;18.80;66.60;;;;;;10541267;28;20043;-24
2023/02/25 20:59:13;;;;;;;6.43;1.63;;;18.70;66.70;;;;;;10537829;28;20079;-23
2023/02/25 21:04:15;;;;;;;7.68;1.95;;;18.70;67.20;;;;;;10528415;28;20499;-26
2023/02/25 21:09:17;;;;;;;10.38;2.63;;;18.70;66.50;;;;;;10531764;28;20067;-24
2023/02/25 21:14:20;;;;;;;11.73;1.88;;;18.50;67.50;;;;;;10538504;28;20431;-25
2023/02/25 21:19:22;;;;;;;3.80;1.38;;;18.40;69.10;;;;;;10533766;28;20085;-24
2023/02/25 21:24:27;;;;;;;7.93;2.30;;;18.40;68.80;;;;;;10533556;28;20071;-25
2023/02/25 21:29:31;;;;;;;8.48;2.60;;;18.60;67.30;;;;;;10528177;28;20042;-24
2023/02/25 21:34:33;;;;;;;12.32;2.75;;;18.60;67.30;;;;;;10530144;28;20047;-28
2023/02/25 21:39:35;;;;;;;9.05;3.30;;;18.50;67.20;;;;;;10524521;28;20047;-28
2023/02/25 21:44:38;;;;;;;4.43;2.25;;;18.50;67.10;;;;;;10529458;28;20048;-25
2023/02/25 21:49:40;;;;;;;2.75;1.38;;;18.30;68.30;;;;;;10529952;28;20119;-24
2023/02/25 21:54:42;;;;;;;7.82;1.88;;;18.40;67.50;;;;;;10529353;28;20051;-25
2023/02/25 21:59:45;;;;;;;6.57;2.00;;;18.40;68.10;;;;;;10532116;28;20123;-23
2023/02/25 22:04:47;;;;;;;6.43;3.03;;;18.30;67.90;;;;;;10528357;28;20133;-25
2023/02/25 22:09:49;;;;;;;6.63;2.63;;;18.30;67.90;;;;;;10533150;28;20036;-24
2023/02/25 22:14:52;;;;;;;8.93;3.38;;;18.30;67.90;;;;;;10526438;28;20138;-26
2023/02/25 22:19:54;;;;;;;13.32;4.45;;;18.20;67.80;;;;;;10524543;28;20092;-23
2023/02/25 22:24:57;;;;;;;15.05;4.60;;;18.30;68.00;;;;;;10520447;28;20471;-24
2023/02/25 22:30:00;;;;;;;19.33;4.22;;;18.30;67.70;;;;;;10526080;28;20063;-25
2023/02/25 22:35:02;;;;;;;10.45;4.60;;;18.20;68.20;;;;;;10528036;28;20127;-25
2023/02/25 22:40:04;;;;;;;10.85;4.95;;;18.10;67.70;;;;;;10526796;28;20121;-26
2023/02/25 22:45:08;;;;;;;9.95;4.15;;;18.10;67.80;;;;;;10507222;28;20145;-25
2023/02/25 22:50:11;;;;;;;10.68;3.97;;;18.10;67.50;;;;;;10527960;28;20068;-25
2023/02/25 22:55:13;;;;;;;8.88;4.07;;;18.10;67.50;;;;;;10528027;28;20079;-26
2023/02/25 23:00:18;;;;;;;7.30;2.97;;;18.10;67.70;;;;;;10529634;28;20051;-25
2023/02/25 23:05:19;;;;;;;8.20;3.78;;;18.00;67.50;;;;;;10519264;28;20032;-26
2023/02/25 23:10:22;;;;;;;5.63;3.33;;;17.90;67.70;;;;;;10531133;28;20099;-26
2023/02/25 23:15:28;;;;;;;9.30;3.55;;;18.00;68.00;;;;;;10523721;28;20040;-25
2023/02/25 23:20:30;;;;;;;10.98;4.57;;;18.00;67.50;;;;;;10522353;28;20047;-27
2023/02/25 23:25:34;;;;;;;7.53;3.63;;;17.90;67.70;;;;;;10526615;28;20379;-25
2023/02/25 23:30:38;;;;;;;8.10;3.28;;;17.90;67.80;;;;;;10533226;28;20047;-25
2023/02/25 23:35:42;;;;;;;7.72;3.50;;;17.80;67.40;;;;;;10528209;28;20092;-24
2023/02/25 23:40:44;;;;;;;7.35;2.90;;;17.80;67.90;;;;;;10527074;28;20153;-26
2023/02/25 23:45:47;;;;;;;4.53;1.95;;;17.70;67.70;;;;;;10526359;28;20043;-24
2023/02/25 23:50:49;;;;;;;5.55;2.10;;;17.70;67.80;;;;;;10525352;28;20477;-25
2023/02/25 23:55:51;;;;;;;9.00;3.50;;;17.70;67.90;;;;;;10531064;28;20104;-24
